createdAt,value
2022-09-11T00:01:32.248Z,16.30
2022-09-11T00:03:59.085Z,16.30
2022-09-11T00:06:30.167Z,16.30
2022-09-11T00:09:00.403Z,16.30
2022-09-11T00:11:29.021Z,16.40
2022-09-11T00:13:56.116Z,16.30
2022-09-11T00:16:25.933Z,16.30
2022-09-11T00:18:53.775Z,16.30
2022-09-11T00:21:20.635Z,16.30
2022-09-11T00:23:47.814Z,16.30
2022-09-11T00:26:16.647Z,16.30
2022-09-11T00:28:45.543Z,16.30
2022-09-11T00:31:14.862Z,16.20
2022-09-11T00:33:42.126Z,16.20
2022-09-11T00:36:12.199Z,16.20
2022-09-11T00:38:39.463Z,16.20
2022-09-11T00:41:10.619Z,16.20
2022-09-11T00:43:54.514Z,16.20
2022-09-11T00:46:23.509Z,16.20
2022-09-11T00:48:50.683Z,16.20
2022-09-11T00:51:22.577Z,16.20
2022-09-11T00:53:51.415Z,16.10
2022-09-11T00:56:19.175Z,16.20
2022-09-11T00:58:49.706Z,16.20
2022-09-11T01:01:17.783Z,16.10
2022-09-11T01:03:44.737Z,16.20
2022-09-11T01:06:11.805Z,16.20
2022-09-11T01:08:38.814Z,16.10
2022-09-11T01:11:19.260Z,16.10
2022-09-11T01:13:53.014Z,16.10
2022-09-11T01:16:28.900Z,16.10
2022-09-11T01:19:00.942Z,16.10
2022-09-11T01:21:51.475Z,16.10
2022-09-11T01:24:42.421Z,16.10
2022-09-11T01:27:45.069Z,16.10
2022-09-11T01:30:16.045Z,16.10
2022-09-11T01:33:01.603Z,16.10
2022-09-11T01:35:39.422Z,16.10
2022-09-11T01:38:12.295Z,16.10
2022-09-11T01:40:46.535Z,16.10
2022-09-11T01:43:16.420Z,16.00
2022-09-11T01:45:46.993Z,16.00
2022-09-11T01:48:17.924Z,16.10
2022-09-11T01:50:47.478Z,16.10
2022-09-11T01:53:17.593Z,16.10
2022-09-11T01:55:48.503Z,16.10
2022-09-11T01:58:21.014Z,16.00
2022-09-11T02:00:53.552Z,16.00
2022-09-11T02:03:25.705Z,16.00
2022-09-11T02:05:56.858Z,16.00
2022-09-11T02:08:28.987Z,16.00
2022-09-11T02:11:01.444Z,15.90
2022-09-11T02:13:32.593Z,15.90
2022-09-11T02:16:07.682Z,15.90
2022-09-11T02:18:41.940Z,15.90
2022-09-11T02:21:08.481Z,15.90
2022-09-11T02:23:35.215Z,15.90
2022-09-11T02:26:03.240Z,15.90
2022-09-11T02:28:29.985Z,15.90
2022-09-11T02:30:56.698Z,15.90
2022-09-11T02:33:32.910Z,15.80
2022-09-11T02:36:24.851Z,15.90
2022-09-11T02:39:04.204Z,15.80
2022-09-11T02:41:40.518Z,15.90
2022-09-11T02:44:12.165Z,15.80
2022-09-11T02:46:55.102Z,15.90
2022-09-11T02:49:32.584Z,15.90
2022-09-11T02:52:05.574Z,15.90
2022-09-11T02:54:40.758Z,15.80
2022-09-11T02:57:14.226Z,15.80
2022-09-11T02:59:45.034Z,15.80
2022-09-11T03:02:14.493Z,15.80
2022-09-11T03:04:42.587Z,15.90
2022-09-11T03:07:09.407Z,15.80
2022-09-11T03:09:36.164Z,15.80
2022-09-11T03:12:03.513Z,15.80
2022-09-11T03:14:30.262Z,15.90
2022-09-11T03:16:57.038Z,15.80
2022-09-11T03:19:23.734Z,15.80
2022-09-11T03:21:51.924Z,15.80
2022-09-11T03:24:18.705Z,15.80
2022-09-11T03:26:45.557Z,15.80
2022-09-11T03:29:12.601Z,15.80
2022-09-11T03:31:39.656Z,15.80
2022-09-11T03:34:06.624Z,15.80
2022-09-11T03:36:33.451Z,15.80
2022-09-11T03:39:01.804Z,15.80
2022-09-11T03:41:28.682Z,15.80
2022-09-11T03:43:55.439Z,15.70
2022-09-11T03:46:22.211Z,15.80
2022-09-11T03:48:48.928Z,15.70
2022-09-11T03:51:16.144Z,15.70
2022-09-11T03:53:43.729Z,15.80
2022-09-11T03:56:12.197Z,15.80
2022-09-11T03:58:38.860Z,15.80
2022-09-11T04:01:10.186Z,15.80
2022-09-11T04:03:37.079Z,15.80
2022-09-11T04:06:04.189Z,15.80
2022-09-11T04:08:31.196Z,15.80
2022-09-11T04:10:57.902Z,15.80
2022-09-11T04:13:30.418Z,15.80
2022-09-11T04:16:00.476Z,15.80
2022-09-11T04:18:27.238Z,15.80
2022-09-11T04:20:54.290Z,15.80
2022-09-11T04:23:21.169Z,15.80
2022-09-11T04:25:48.266Z,15.80
2022-09-11T04:28:15.370Z,15.80
2022-09-11T04:30:43.436Z,15.80
2022-09-11T04:33:10.103Z,15.80
2022-09-11T04:35:39.890Z,15.80
2022-09-11T04:38:07.358Z,15.80
2022-09-11T04:40:34.350Z,15.70
2022-09-11T04:43:01.443Z,15.80
2022-09-11T04:45:28.385Z,15.70
2022-09-11T04:47:56.483Z,15.80
2022-09-11T04:50:23.377Z,15.80
2022-09-11T04:52:50.105Z,15.70
2022-09-11T04:55:16.997Z,15.70
2022-09-11T04:57:43.685Z,15.70
2022-09-11T05:00:11.670Z,15.70
2022-09-11T05:02:38.325Z,15.70
2022-09-11T05:05:07.829Z,15.70
2022-09-11T05:07:34.527Z,15.70
2022-09-11T05:10:01.226Z,15.80
2022-09-11T05:12:29.091Z,15.70
2022-09-11T05:14:55.861Z,15.80
2022-09-11T05:17:22.526Z,15.80
2022-09-11T05:19:49.361Z,15.80
2022-09-11T05:22:17.443Z,15.80
2022-09-11T05:24:44.192Z,15.80
2022-09-11T05:27:10.873Z,15.80
2022-09-11T05:29:37.605Z,15.80
2022-09-11T05:32:04.645Z,15.80
2022-09-11T05:34:31.490Z,15.70
2022-09-11T05:36:58.319Z,15.80
2022-09-11T05:39:26.352Z,15.80
2022-09-11T05:41:53.965Z,15.80
2022-09-11T05:44:20.724Z,15.70
2022-09-11T05:46:48.105Z,15.70
2022-09-11T05:49:14.982Z,15.70
2022-09-11T05:51:41.715Z,15.70
2022-09-11T05:54:08.568Z,15.70
2022-09-11T05:56:37.671Z,15.70
2022-09-11T05:59:10.005Z,15.70
2022-09-11T06:01:36.701Z,15.70
2022-09-11T06:04:03.396Z,15.70
2022-09-11T06:06:31.339Z,15.70
2022-09-11T06:08:58.119Z,15.70
2022-09-11T06:11:24.809Z,15.70
2022-09-11T06:13:52.890Z,15.70
2022-09-11T06:16:21.214Z,15.70
2022-09-11T06:18:49.564Z,15.70
2022-09-11T06:21:18.058Z,15.70
2022-09-11T06:23:45.390Z,15.70
2022-09-11T06:26:13.426Z,15.70
2022-09-11T06:28:40.682Z,15.70
2022-09-11T06:31:12.210Z,15.70
2022-09-11T06:33:41.108Z,15.70
2022-09-11T06:36:10.742Z,15.70
2022-09-11T06:38:38.287Z,15.70
2022-09-11T06:41:06.727Z,15.80
2022-09-11T06:43:33.747Z,15.80
2022-09-11T06:46:04.321Z,15.70
2022-09-11T06:48:32.727Z,15.70
2022-09-11T06:51:02.574Z,15.70
2022-09-11T06:53:29.302Z,15.70
2022-09-11T06:55:59.440Z,15.70
2022-09-11T06:58:26.479Z,15.70
2022-09-11T07:00:53.285Z,15.70
2022-09-11T07:03:20.012Z,15.70
2022-09-11T07:05:48.114Z,15.70
2022-09-11T07:08:14.886Z,15.70
2022-09-11T07:10:41.609Z,15.70
2022-09-11T07:13:08.509Z,15.70
2022-09-11T07:15:35.246Z,15.70
2022-09-11T07:18:01.963Z,15.70
2022-09-11T07:20:28.884Z,15.80
2022-09-11T07:22:57.171Z,15.70
2022-09-11T07:25:23.883Z,15.70
2022-09-11T07:27:50.887Z,15.70
2022-09-11T07:30:18.046Z,15.70
2022-09-11T07:32:44.978Z,15.70
2022-09-11T07:35:11.973Z,15.70
2022-09-11T07:37:38.829Z,15.70
2022-09-11T07:40:08.084Z,15.70
2022-09-11T07:42:34.788Z,15.70
2022-09-11T07:45:01.482Z,15.70
2022-09-11T07:47:28.250Z,15.70
2022-09-11T07:49:54.986Z,15.70
2022-09-11T07:52:21.758Z,15.80
2022-09-11T07:54:48.502Z,15.80
2022-09-11T07:57:16.557Z,15.80
2022-09-11T07:59:43.259Z,15.80
2022-09-11T08:02:10.264Z,15.80
2022-09-11T08:04:37.010Z,15.80
2022-09-11T08:07:04.028Z,15.80
2022-09-11T08:09:30.859Z,15.80
2022-09-11T08:11:57.627Z,15.80
2022-09-11T08:14:26.957Z,15.90
2022-09-11T08:16:53.881Z,15.90
2022-09-11T08:19:22.737Z,15.80
2022-09-11T08:21:50.470Z,15.80
2022-09-11T08:24:18.086Z,15.90
2022-09-11T08:26:48.735Z,15.90
2022-09-11T08:29:16.129Z,15.90
2022-09-11T08:31:44.295Z,15.90
2022-09-11T08:34:11.133Z,15.90
2022-09-11T08:36:37.854Z,15.90
2022-09-11T08:39:04.734Z,15.90
2022-09-11T08:41:39.219Z,15.90
2022-09-11T08:44:14.985Z,15.90
2022-09-11T08:46:46.292Z,16.00
2022-09-11T08:49:21.594Z,16.00
2022-09-11T08:51:48.695Z,16.00
2022-09-11T08:54:25.562Z,16.00
2022-09-11T08:56:53.441Z,16.00
2022-09-11T08:59:28.947Z,16.00
2022-09-11T09:02:10.431Z,16.00
2022-09-11T09:04:56.900Z,16.00
2022-09-11T09:07:34.066Z,16.00
2022-09-11T09:10:10.881Z,16.00
2022-09-11T09:12:44.702Z,16.00
2022-09-11T09:15:32.373Z,16.00
2022-09-11T09:18:04.229Z,16.00
2022-09-11T09:20:34.362Z,16.00
2022-09-11T09:23:06.634Z,16.00
2022-09-11T09:25:37.834Z,16.00
2022-09-11T09:28:14.322Z,16.00
2022-09-11T09:30:46.993Z,16.00
2022-09-11T09:33:31.298Z,16.00
2022-09-11T09:36:12.101Z,16.00
2022-09-11T09:38:39.129Z,16.00
2022-09-11T09:41:26.974Z,16.00
2022-09-11T09:44:01.029Z,16.00
2022-09-11T09:46:35.305Z,16.00
2022-09-11T09:49:03.410Z,16.00
2022-09-11T09:51:30.103Z,16.00
2022-09-11T09:54:00.693Z,16.00
2022-09-11T09:56:30.017Z,16.10
2022-09-11T09:59:01.573Z,16.10
2022-09-11T10:01:49.688Z,16.10
2022-09-11T10:04:21.030Z,16.10
2022-09-11T10:06:50.033Z,16.20
2022-09-11T10:09:25.641Z,16.20
2022-09-11T10:11:54.721Z,16.20
2022-09-11T10:14:47.197Z,16.30
2022-09-11T10:17:20.345Z,16.30
2022-09-11T10:19:54.470Z,16.30
2022-09-11T10:22:22.646Z,16.30
2022-09-11T10:24:58.951Z,16.40
2022-09-11T10:27:28.856Z,16.40
2022-09-11T10:29:55.986Z,16.40
2022-09-11T10:32:23.049Z,16.40
2022-09-11T10:34:52.602Z,16.40
2022-09-11T10:37:25.206Z,16.40
2022-09-11T10:39:52.867Z,16.40
2022-09-11T10:42:22.486Z,16.50
2022-09-11T10:44:50.525Z,16.50
2022-09-11T10:47:21.980Z,16.50
2022-09-11T10:49:48.808Z,16.60
2022-09-11T10:52:19.511Z,16.60
2022-09-11T10:54:58.922Z,16.60
2022-09-11T10:57:29.569Z,16.60
2022-09-11T11:00:02.628Z,16.60
2022-09-11T11:02:32.417Z,16.60
2022-09-11T11:05:03.645Z,16.60
2022-09-11T11:07:51.665Z,16.70
2022-09-11T11:10:30.213Z,16.70
2022-09-11T11:13:07.249Z,16.60
2022-09-11T11:15:50.806Z,16.70
2022-09-11T11:18:33.902Z,16.70
2022-09-11T11:21:10.660Z,16.70
2022-09-11T11:23:50.332Z,16.80
2022-09-11T11:26:27.290Z,16.80
2022-09-11T11:29:19.476Z,16.80
2022-09-11T11:32:02.634Z,16.80
2022-09-11T11:34:49.979Z,16.80
2022-09-11T11:37:20.702Z,16.90
2022-09-11T11:39:54.726Z,16.90
2022-09-11T11:42:25.118Z,16.90
2022-09-11T11:44:56.449Z,16.90
2022-09-11T11:47:29.329Z,16.90
2022-09-11T11:50:03.345Z,16.90
2022-09-11T11:52:40.521Z,16.90
2022-09-11T11:55:16.990Z,16.90
2022-09-11T11:57:51.899Z,17.00
2022-09-11T12:00:19.318Z,17.00
2022-09-11T12:02:52.572Z,17.00
2022-09-11T12:05:23.093Z,17.00
2022-09-11T12:07:51.234Z,17.00
2022-09-11T12:10:34.378Z,17.00
2022-09-11T12:13:03.725Z,17.00
2022-09-11T12:15:31.772Z,17.00
2022-09-11T12:18:04.162Z,17.00
2022-09-11T12:20:37.167Z,17.00
2022-09-11T12:23:06.117Z,17.00
2022-09-11T12:26:03.310Z,17.00
2022-09-11T12:28:30.139Z,17.10
2022-09-11T12:31:02.679Z,17.10
2022-09-11T12:33:54.769Z,17.10
2022-09-11T12:36:31.327Z,17.10
2022-09-11T12:39:02.355Z,17.10
2022-09-11T12:41:32.652Z,17.10
2022-09-11T12:43:59.865Z,17.20
2022-09-11T12:47:12.380Z,17.20
2022-09-11T12:49:41.107Z,17.20
2022-09-11T12:52:25.398Z,17.20
2022-09-11T12:54:53.075Z,17.20
2022-09-11T12:57:28.048Z,17.20
2022-09-11T12:59:57.599Z,17.20
2022-09-11T13:02:28.591Z,17.20
2022-09-11T13:04:56.055Z,17.30
2022-09-11T13:07:30.237Z,17.30
2022-09-11T13:09:59.464Z,17.30
2022-09-11T13:12:49.919Z,17.30
2022-09-11T13:15:38.691Z,17.30
2022-09-11T13:18:33.176Z,17.30
2022-09-11T13:21:02.305Z,17.30
2022-09-11T13:23:29.418Z,17.40
2022-09-11T13:25:57.579Z,17.40
2022-09-11T13:28:28.258Z,17.40
2022-09-11T13:30:58.391Z,17.40
2022-09-11T13:33:26.654Z,17.40
2022-09-11T13:35:54.273Z,17.50
2022-09-11T13:38:24.941Z,17.50
2022-09-11T13:40:55.435Z,17.50
2022-09-11T13:43:25.929Z,17.50
2022-09-11T13:46:17.891Z,17.50
2022-09-11T13:48:46.222Z,17.60
2022-09-11T13:51:13.817Z,17.50
2022-09-11T13:53:42.586Z,17.60
2022-09-11T13:56:18.753Z,17.60
2022-09-11T13:58:47.536Z,17.60
2022-09-11T14:01:18.605Z,17.60
2022-09-11T14:03:46.913Z,17.60
2022-09-11T14:06:16.473Z,17.60
2022-09-11T14:08:49.147Z,17.60
2022-09-11T14:11:23.503Z,17.70
2022-09-11T14:13:55.572Z,17.60
2022-09-11T14:16:27.488Z,17.70
2022-09-11T14:18:58.025Z,17.60
2022-09-11T14:21:31.566Z,17.70
2022-09-11T14:23:59.356Z,17.70
2022-09-11T14:26:40.532Z,17.70
2022-09-11T14:29:22.531Z,17.70
2022-09-11T14:31:51.449Z,17.70
2022-09-11T14:34:19.889Z,17.70
2022-09-11T14:36:53.442Z,17.70
2022-09-11T14:39:26.273Z,17.70
2022-09-11T14:41:53.706Z,17.70
2022-09-11T14:44:20.477Z,17.70
2022-09-11T14:46:47.226Z,17.70
2022-09-11T14:49:15.546Z,17.70
2022-09-11T14:51:42.602Z,17.80
2022-09-11T14:54:15.478Z,17.80
2022-09-11T14:56:42.410Z,17.70
2022-09-11T14:59:09.117Z,17.80
2022-09-11T15:01:35.909Z,17.80
2022-09-11T15:04:03.284Z,17.80
2022-09-11T15:06:31.416Z,17.80
2022-09-11T15:08:58.219Z,17.80
2022-09-11T15:11:24.993Z,17.80
2022-09-11T15:14:13.265Z,17.80
2022-09-11T15:16:38.400Z,17.80
2022-09-11T15:19:05.164Z,17.80
2022-09-11T15:21:37.407Z,17.80
2022-09-11T15:24:05.382Z,17.80
2022-09-11T15:26:32.822Z,17.80
2022-09-11T15:29:00.165Z,17.80
2022-09-11T15:31:28.293Z,17.80
2022-09-11T15:33:55.093Z,17.80
2022-09-11T15:36:21.814Z,17.80
2022-09-11T15:38:52.618Z,17.80
2022-09-11T15:41:19.479Z,17.90
2022-09-11T15:43:46.254Z,17.90
2022-09-11T15:46:13.039Z,17.90
2022-09-11T15:48:40.202Z,17.90
2022-09-11T15:51:10.271Z,17.90
2022-09-11T15:53:40.541Z,17.90
2022-09-11T15:56:10.429Z,17.90
2022-09-11T15:58:38.543Z,17.90
2022-09-11T16:01:06.203Z,17.90
2022-09-11T16:03:33.831Z,17.90
2022-09-11T16:06:00.570Z,17.90
2022-09-11T16:08:27.914Z,17.90
2022-09-11T16:10:54.626Z,17.90
2022-09-11T16:13:22.666Z,17.90
2022-09-11T16:15:49.446Z,17.90
2022-09-11T16:18:16.216Z,17.80
2022-09-11T16:20:42.956Z,17.90
2022-09-11T16:23:09.865Z,17.90
2022-09-11T16:25:38.600Z,17.90
2022-09-11T16:28:05.472Z,17.80
2022-09-11T16:30:43.303Z,17.90
2022-09-11T16:33:12.233Z,17.90
2022-09-11T16:35:39.606Z,17.90
2022-09-11T16:38:07.797Z,17.90
2022-09-11T16:40:35.315Z,17.90
2022-09-11T16:43:02.103Z,17.90
2022-09-11T16:45:28.867Z,17.90
2022-09-11T16:47:58.941Z,17.80
2022-09-11T16:50:26.035Z,17.80
2022-09-11T16:52:52.882Z,17.80
2022-09-11T16:55:19.958Z,17.80
2022-09-11T16:57:46.638Z,17.80
2022-09-11T17:00:14.124Z,17.80
2022-09-11T17:02:41.143Z,17.80
2022-09-11T17:05:10.070Z,17.80
2022-09-11T17:07:36.812Z,17.80
2022-09-11T17:10:04.674Z,17.80
2022-09-11T17:12:31.429Z,17.80
2022-09-11T17:14:58.286Z,17.80
2022-09-11T17:17:25.068Z,17.70
2022-09-11T17:19:51.862Z,17.70
2022-09-11T17:22:19.902Z,17.70
2022-09-11T17:24:46.594Z,17.70
2022-09-11T17:27:13.306Z,17.70
2022-09-11T17:29:44.303Z,17.70
2022-09-11T17:32:27.318Z,17.70
2022-09-11T17:34:55.026Z,17.70
2022-09-11T17:37:23.115Z,17.60
2022-09-11T17:39:49.838Z,17.70
2022-09-11T17:42:16.598Z,17.60
2022-09-11T17:44:43.282Z,17.60
2022-09-11T17:47:10.078Z,17.60
2022-09-11T17:49:36.902Z,17.60
2022-09-11T17:52:03.745Z,17.60
2022-09-11T17:54:31.820Z,17.50
2022-09-11T17:56:58.574Z,17.50
2022-09-11T17:59:25.309Z,17.50
2022-09-11T18:01:52.079Z,17.50
2022-09-11T18:04:19.018Z,17.40
2022-09-11T18:06:45.758Z,17.40
2022-09-11T18:09:15.341Z,17.40
2022-09-11T18:11:45.373Z,17.40
2022-09-11T18:14:12.859Z,17.30
2022-09-11T18:16:40.153Z,17.30
2022-09-11T18:19:06.933Z,17.30
2022-09-11T18:21:37.113Z,17.30
2022-09-11T18:24:06.307Z,17.20
2022-09-11T18:26:35.331Z,17.30
2022-09-11T18:29:06.034Z,17.20
2022-09-11T18:31:37.309Z,17.20
2022-09-11T18:34:04.242Z,17.10
2022-09-11T18:36:31.509Z,17.10
2022-09-11T18:39:00.262Z,17.10
2022-09-11T18:41:28.758Z,17.10
2022-09-11T18:43:56.781Z,17.10
2022-09-11T18:46:25.379Z,17.10
2022-09-11T18:48:52.625Z,17.00
2022-09-11T18:51:19.893Z,17.00
2022-09-11T18:53:47.850Z,17.00
2022-09-11T18:56:15.805Z,17.00
2022-09-11T18:58:42.502Z,17.00
2022-09-11T19:01:12.270Z,16.90
2022-09-11T19:03:40.869Z,16.90
2022-09-11T19:06:09.765Z,16.90
2022-09-11T19:08:37.045Z,16.90
2022-09-11T19:11:06.901Z,16.90
2022-09-11T19:13:33.883Z,16.90
2022-09-11T19:16:00.788Z,16.80
2022-09-11T19:18:27.677Z,16.80
2022-09-11T19:21:00.266Z,16.80
2022-09-11T19:23:29.481Z,16.80
2022-09-11T19:25:56.337Z,16.70
2022-09-11T19:28:23.082Z,16.70
2022-09-11T19:30:56.075Z,16.70
2022-09-11T19:33:23.203Z,16.60
2022-09-11T19:35:54.691Z,16.70
2022-09-11T19:38:26.715Z,16.60
2022-09-11T19:40:53.464Z,16.70
2022-09-11T19:43:20.172Z,16.60
2022-09-11T19:45:46.841Z,16.60
2022-09-11T19:48:13.562Z,16.50
2022-09-11T19:50:43.256Z,16.50
2022-09-11T19:53:10.033Z,16.50
2022-09-11T19:55:38.093Z,16.50
2022-09-11T19:58:04.962Z,16.50
2022-09-11T20:00:31.883Z,16.40
2022-09-11T20:03:00.319Z,16.40
2022-09-11T20:05:27.201Z,16.40
2022-09-11T20:07:53.897Z,16.40
2022-09-11T20:10:20.646Z,16.40
2022-09-11T20:12:48.678Z,16.40
2022-09-11T20:15:15.538Z,16.30
2022-09-11T20:17:42.430Z,16.30
2022-09-11T20:20:09.287Z,16.30
2022-09-11T20:22:35.977Z,16.30
2022-09-11T20:25:02.788Z,16.30
2022-09-11T20:27:29.514Z,16.30
2022-09-11T20:29:57.541Z,16.30
2022-09-11T20:32:24.201Z,16.30
2022-09-11T20:34:50.964Z,16.20
2022-09-11T20:37:17.679Z,16.20
2022-09-11T20:39:44.474Z,16.10
2022-09-11T20:42:11.570Z,16.00
2022-09-11T20:44:38.254Z,16.10
2022-09-11T20:47:06.381Z,16.00
2022-09-11T20:49:33.121Z,16.00
2022-09-11T20:52:00.507Z,16.00
2022-09-11T20:54:27.365Z,15.90
2022-09-11T20:56:54.119Z,15.90
2022-09-11T20:59:20.868Z,16.00
2022-09-11T21:01:47.794Z,16.00
2022-09-11T21:04:16.010Z,15.90
2022-09-11T21:06:42.745Z,16.00
2022-09-11T21:09:11.360Z,15.90
2022-09-11T21:11:39.724Z,15.90
2022-09-11T21:14:06.967Z,15.80
2022-09-11T21:16:34.361Z,15.80
2022-09-11T21:19:01.893Z,15.70
2022-09-11T21:21:31.018Z,15.70
2022-09-11T21:23:59.647Z,15.70
2022-09-11T21:26:26.477Z,15.80
2022-09-11T21:28:53.181Z,15.70
2022-09-11T21:31:19.972Z,15.60
2022-09-11T21:33:46.758Z,15.60
2022-09-11T21:36:13.507Z,15.60
2022-09-11T21:38:41.674Z,15.60
2022-09-11T21:41:10.472Z,15.60
2022-09-11T21:43:37.619Z,15.60
2022-09-11T21:46:06.508Z,15.60
2022-09-11T21:48:35.776Z,15.60
2022-09-11T21:51:06.825Z,15.60
2022-09-11T21:53:33.587Z,15.70
2022-09-11T21:56:02.265Z,15.60
2022-09-11T21:58:29.028Z,15.70
2022-09-11T22:00:56.003Z,15.60
2022-09-11T22:03:22.878Z,15.50
2022-09-11T22:05:49.593Z,15.50
2022-09-11T22:08:19.450Z,15.50
2022-09-11T22:10:47.702Z,15.40
2022-09-11T22:13:16.566Z,15.40
2022-09-11T22:15:45.093Z,15.50
2022-09-11T22:18:11.827Z,15.50
2022-09-11T22:20:39.762Z,15.50
2022-09-11T22:23:07.162Z,15.40
2022-09-11T22:25:34.077Z,15.40
2022-09-11T22:28:00.783Z,15.40
2022-09-11T22:30:28.821Z,15.30
2022-09-11T22:32:55.516Z,15.20
2022-09-11T22:35:22.350Z,15.20
2022-09-11T22:37:49.081Z,15.20
2022-09-11T22:40:15.976Z,15.10
2022-09-11T22:42:42.717Z,15.20
2022-09-11T22:45:10.174Z,15.20
2022-09-11T22:47:38.338Z,15.20
2022-09-11T22:50:06.079Z,15.10
2022-09-11T22:52:32.856Z,15.10
2022-09-11T22:54:59.563Z,15.20
2022-09-11T22:57:29.068Z,15.20
2022-09-11T22:59:56.159Z,15.10
2022-09-11T23:02:23.135Z,15.00
2022-09-11T23:04:51.383Z,14.90
2022-09-11T23:07:18.125Z,15.00
2022-09-11T23:09:44.918Z,15.00
2022-09-11T23:12:11.640Z,15.00
2022-09-11T23:14:38.368Z,14.90
2022-09-11T23:17:05.074Z,14.90
2022-09-11T23:19:31.787Z,14.80
2022-09-11T23:21:59.855Z,14.90
2022-09-11T23:24:26.600Z,14.90
2022-09-11T23:26:53.440Z,14.90
2022-09-11T23:29:20.166Z,14.80
2022-09-11T23:31:47.367Z,14.90
2022-09-11T23:34:16.146Z,14.90
2022-09-11T23:36:43.180Z,14.80
2022-09-11T23:39:11.383Z,14.80
2022-09-11T23:41:38.137Z,14.80
2022-09-11T23:44:04.959Z,14.70
2022-09-11T23:46:32.138Z,14.70
2022-09-11T23:48:58.880Z,14.50
2022-09-11T23:51:25.700Z,14.70
2022-09-11T23:53:52.449Z,14.50
2022-09-11T23:56:20.713Z,14.50
2022-09-11T23:58:47.617Z,14.60
